Tiempo atmosférico en la estación meteorológica de Bunyola, Sierra de Alfabia, Illes Balears (1030 m.)



Fecha
DESCASC
Temp. máxima en grados centígrados (hora)
DESCASC
Temp. mínima en grados centígrados (hora)
DESCASC
Temp. media en grados centígrados
DESCASC
Racha de viento máxima en m/sg (hora)
DESCASC
Velocidad máxima media en intervalos de 10 minutos(hora)
DESCASC
Precipitaciones diarias en mm
DESCASC
Precipitaciones de 00:00 a 06:00 en mm
DESCASC
Precipitaciones de 06:00 a 12:00 en mm
DESCASC
Precipitaciones de 12:00 a 18:00 en mm
DESCASC
Precipitaciones de 18:00 a 24:00 en mm
DESCASC

Gráficas

Temp. máximas Temp. mínimas Temp. medias Precipitaciones Rachas de viento máximas Velocidades máximas media en intervalos de 10 minutos

Datos horarios

Fecha y hora oficial Temperatura (ºC) Velocidad del viento (km/h) Dirección del viento Racha (km/h) Dirección de racha Precipitación (mm) Presión (hPa) Tendencia (hPa) Humedad (%)
2019-08-17 23:00:00 22.5 23 Sur 29 Sur 0 -- -- 45
2019-08-17 22:00:00 23.1 23 Sur 28 Sur 0 -- -- 41
2019-08-17 21:00:00 23 25 Sur 32 Sur 0 -- -- 39
2019-08-17 20:00:00 22.3 25 Sur 35 Sur 0 -- -- 67
2019-08-17 19:00:00 23.5 25 Sur 35 Sur 0 -- -- 64
2019-08-17 18:00:00 24.3 18 Sur 27 Sur 0 -- -- 58
2019-08-17 17:00:00 24.9 14 Sur 25 Sur 0 -- -- 58
2019-08-17 16:00:00 24.7 18 Sur 27 Sur 0 -- -- 63
2019-08-17 15:00:00 26.3 15 Sur 26 Sur 0 -- -- 54
2019-08-17 14:00:00 27.2 13 Sur 24 Sur 0 -- -- 45
2019-08-17 13:00:00 26.8 11 Sur 21 Sur 0 -- -- 41
2019-08-17 12:00:00 26 12 Sur 24 Sur 0 -- -- 43
2019-08-17 11:00:00 25.7 13 Sur 22 Sur 0 -- -- 42
2019-08-17 10:00:00 24.2 18 Sur 23 Sur 0 -- -- 36
2019-08-17 09:00:00 24 13 Sur 20 Sur 0 -- -- 27
2019-08-17 08:00:00 22.4 12 Sur 16 Sur 0 -- -- 27
2019-08-17 07:00:00 21.4 13 Sur 17 Sur 0 -- -- 30
2019-08-17 06:00:00 21.6 14 Sur 20 Sur 0 -- -- 31
2019-08-17 05:00:00 20.5 14 Sur 19 Sur 0 -- -- 45
2019-08-17 04:00:00 21.2 12 Sur 14 Sur 0 -- -- 38
2019-08-17 03:00:00 21.1 8 Sur 9 Sur 0 -- -- 45
2019-08-17 02:00:00 21.5 4 Sudoeste 7 Oeste 0 -- -- 56
2019-08-17 01:00:00 22.3 4 Sudoeste 8 Noroeste 0 -- -- 35
2019-08-17 00:00:00 22.4 7 Noroeste 10 Noroeste 0 -- -- 31
2019-08-16 23:00:00 22.1 4 Sudoeste 12 Sudoeste 0 -- -- 52
2019-08-16 22:00:00 22.4 6 Oeste 11 Noroeste 0 -- -- 31
2019-08-16 21:00:00 21.1 5 Sudeste 10 Sudeste 0 -- -- 71
2019-08-16 20:00:00 21.6 5 Sur 13 Sur 0 -- -- 75
2019-08-16 19:00:00 22.1 6 Sur 17 Sudoeste 0 -- -- 79
2019-08-16 18:00:00 22.9 9 Sur 22 Sudoeste 0 -- -- 75
2019-08-16 17:00:00 24.3 8 Sudoeste 26 Sudoeste 0 -- -- 62
2019-08-16 16:00:00 24.8 9 Sudoeste 26 Sur 0 -- -- 61
2019-08-16 15:00:00 24.4 12 Sur 22 Sur 0 -- -- 60
2019-08-16 14:00:00 24.8 10 Sudoeste 24 Sudoeste 0 -- -- 53
2019-08-16 13:00:00 24.4 9 Sur 21 Sudoeste 0 -- -- 54
2019-08-16 12:00:00 22.6 7 Sur 19 Sudoeste 0 -- -- 60
2019-08-16 11:00:00 21.7 5 Sur 16 Sudeste 0 -- -- 70
2019-08-16 10:00:00 20.5 6 Sur 14 Sur 0 -- -- 80
2019-08-16 09:00:00 21.4 5 Noroeste 12 Noroeste 0 -- -- 52
2019-08-16 08:00:00 20 10 Noroeste 14 Noroeste 0 -- -- 52
2019-08-16 07:00:00 18.2 7 Noroeste 14 Noroeste 0 -- -- 57
2019-08-16 06:00:00 18.3 9 Noroeste 12 Noroeste 0 -- -- 62
2019-08-16 05:00:00 18.8 10 Noroeste 12 Oeste 0 -- -- 61
2019-08-16 04:00:00 19.6 6 Oeste 18 Sudoeste 0 -- -- 54
2019-08-16 03:00:00 19.4 7 Sur 19 Sur 0 -- -- 55
2019-08-16 02:00:00 19.9 13 Sur 17 Sudeste 0 -- -- 41
2019-08-16 01:00:00 19.7 13 Sudeste 15 Sur 0 -- -- 51
2019-08-16 00:00:00 20 10 Sur 13 Sur 0 -- -- 70
2019-08-15 23:00:00 19.7 4 Este 18 Sudeste 0 -- -- 81
2019-08-15 22:00:00 19.4 16 Sudeste 21 Sur 0 -- -- 78
2019-08-15 21:00:00 19.2 20 Sur 24 Sur 0 -- -- 84
2019-08-15 20:00:00 20.2 6 Sur 11 Sur 0 -- -- 81
2019-08-15 19:00:00 22 5 Sudoeste 20 Sur 0 -- -- 72
2019-08-15 18:00:00 22.2 10 Sur 22 Sudoeste 0 -- -- 72
2019-08-15 17:00:00 22.2 13 Sur 48 Sudoeste 0 -- -- 76
2019-08-15 16:00:00 23.4 12 Sur 30 Sudoeste 0 -- -- 70
2019-08-15 15:00:00 24.8 9 Sur 30 Sur 0 -- -- 60
2019-08-15 14:00:00 24.8 11 Sudoeste 27 Norte 0 -- -- 59
2019-08-15 13:00:00 24.6 5 Este 51 Sur 0 -- -- 57
2019-08-15 12:00:00 24.1 6 Sur 19 Sudoeste 0 -- -- 61
2019-08-15 11:00:00 23.4 6 Sur 14 Sudoeste 0 -- -- 70
2019-08-15 10:00:00 24.1 6 Sur 12 Sur 0 -- -- 49
2019-08-15 09:00:00 22.8 5 Oeste 12 Oeste 0 -- -- 44
2019-08-15 08:00:00 21.1 6 Sudoeste 12 Sudoeste 0 -- -- 47
2019-08-15 07:00:00 19.2 9 Sudoeste 11 Oeste 0 -- -- 62
2019-08-15 06:00:00 19 6 Sudoeste 10 Sudoeste 0 -- -- 64
2019-08-15 05:00:00 18.4 4 Norte 10 Noroeste 0 -- -- 71
2019-08-15 04:00:00 18.8 4 Norte 9 Norte 0 -- -- 66
2019-08-15 03:00:00 19.6 3 Sudoeste 7 Sur 0 -- -- 43
2019-08-15 02:00:00 19.4 5 Sur 9 Sur 0 -- -- 53
2019-08-15 01:00:00 19.7 3 Sudeste 7 Sudeste 0 -- -- 40
2019-08-15 00:00:00 19.5 3 Norte 6 Norte 0 -- -- 56
2019-08-14 23:00:00 19.3 2 Noroeste 6 Noroeste 0 -- -- 51
2019-08-14 22:00:00 19.9 4 Noroeste 7 Noroeste 0 -- -- 50
2019-08-14 21:00:00 19 0 Calma 8 Nordeste 0 -- -- 89
2019-08-14 20:00:00 20.4 3 Noroeste 16 Noroeste 0 -- -- 76
2019-08-14 19:00:00 21.7 6 Nordeste 26 Noroeste 0 -- -- 63
2019-08-14 18:00:00 21.8 13 Norte 26 Noroeste 0 -- -- 65
2019-08-14 17:00:00 23.2 14 Noroeste 31 Noroeste 0 -- -- 55
2019-08-14 16:00:00 23.3 14 Noroeste 30 Noroeste 0 -- -- 48
2019-08-14 15:00:00 23.7 13 Noroeste 30 Noroeste 0 -- -- 57
2019-08-14 14:00:00 23.1 15 Noroeste 27 Noroeste 0 -- -- 58
2019-08-14 13:00:00 20.5 12 Norte 23 Noroeste 0 -- -- 75
2019-08-14 12:00:00 21.1 8 Noroeste -- -- -- -- -- 69
2019-08-14 11:00:00 21.6 14 Noroeste -- -- -- -- -- 66
2019-08-14 10:00:00 19.7 14 Noroeste 33 Oeste 0 -- -- 79
2019-08-14 09:00:00 17.3 14 Oeste 28 Oeste 0 -- -- 91
2019-08-14 08:00:00 16.5 11 Oeste 23 Oeste 0 -- -- 90
2019-08-14 07:00:00 15.8 12 Oeste 22 Oeste 0 -- -- 93
2019-08-14 06:00:00 15.7 9 Oeste 19 Noroeste 0 -- -- 94
2019-08-14 05:00:00 15.3 13 Oeste 22 Noroeste 0 -- -- 86
2019-08-14 04:00:00 15.6 15 Noroeste 24 Oeste 0 -- -- 76
2019-08-14 03:00:00 15.7 14 Noroeste 22 Oeste 0 -- -- 75
2019-08-14 02:00:00 16.1 8 Noroeste 22 Noroeste 0 -- -- 72
2019-08-14 01:00:00 16.3 14 Noroeste 23 Noroeste 0 -- -- 73
2019-08-14 00:00:00 16.9 13 Noroeste 23 Noroeste 0 -- -- 71
2019-08-13 23:00:00 17.3 15 Noroeste 24 Oeste 0 -- -- 66
2019-08-13 22:00:00 -- -- -- -- -- -- -- -- --
2019-08-13 21:00:00 16.6 8 Sur 16 Sur 0 -- -- 92
2019-08-13 20:00:00 18.2 10 Sur 14 Sur 0 -- -- 79
2019-08-13 19:00:00 19.6 2 Sur 15 Norte 0 -- -- 75
2019-08-13 18:00:00 20 6 Norte 24 Norte 0 -- -- 66
2019-08-13 17:00:00 20.6 14 Norte 25 Noroeste 0 -- -- 62
2019-08-13 16:00:00 21 12 Noroeste 25 Noroeste 0 -- -- 59
2019-08-13 15:00:00 20.3 4 Este 14 Noroeste 0 -- -- 62
2019-08-13 14:00:00 20.3 4 Noroeste 14 Oeste 0 -- -- 63
2019-08-13 13:00:00 20 4 Noroeste 16 Norte 0 -- -- 64
2019-08-13 12:00:00 18.5 8 Norte 26 Este 0 -- -- 73
2019-08-13 11:00:00 20 8 Noroeste 21 Este 0 -- -- 61
2019-08-13 10:00:00 19.3 8 Nordeste 26 Este 0 -- -- 59
2019-08-13 09:00:00 17.1 13 Nordeste 35 Este 0 -- -- 62
2019-08-13 08:00:00 16.3 22 Este 31 Este 0 -- -- 63
2019-08-13 07:00:00 16.2 26 Este 43 Este 0 -- -- 61
2019-08-13 06:00:00 16.1 27 Nordeste 44 Nordeste 0 -- -- 61
2019-08-13 05:00:00 15.8 26 Nordeste 44 Nordeste 0 -- -- 68
2019-08-13 04:00:00 16 23 Nordeste 41 Nordeste 0 -- -- 71
2019-08-13 03:00:00 16.5 30 Nordeste 41 Nordeste 0 -- -- 69
2019-08-13 02:00:00 17.8 17 Nordeste 27 Este 0 -- -- 68
2019-08-13 01:00:00 17.8 17 Este 33 Nordeste 0 -- -- 68
2019-08-13 00:00:00 18 16 Este 26 Nordeste 0 -- -- 63
2019-08-12 23:00:00 19 10 Nordeste 15 Nordeste 0 -- -- 68
2019-08-12 22:00:00 19.2 8 Nordeste 13 Norte 0 -- -- 85
2019-08-12 21:00:00 19.6 10 Norte 21 Norte 0 -- -- 82
2019-08-12 20:00:00 20.1 7 Norte 14 Norte 0 -- -- 85
2019-08-12 19:00:00 19.9 5 Norte 17 Noroeste 0 -- -- 88
2019-08-12 18:00:00 21.4 6 Norte 15 Norte 0 -- -- 84
2019-08-12 17:00:00 21.1 7 Norte 14 Noroeste 0 -- -- 86
2019-08-12 16:00:00 20.8 8 Nordeste 22 Este 0 -- -- 89
2019-08-12 15:00:00 21.3 6 Norte 24 Este 0 -- -- 89
2019-08-12 14:00:00 20.8 19 Este 28 Este 0 -- -- 92
2019-08-12 13:00:00 24 13 Sudeste 24 Sudeste 0 -- -- 74
2019-08-12 12:00:00 24 5 Este 21 Este 0 -- -- 75
2019-08-12 11:00:00 20.8 4 Nordeste 24 Noroeste 0 -- -- 91
2019-08-12 10:00:00 22.1 0 Calma 21 Sudeste 0 -- -- 81
2019-08-12 09:00:00 19.5 7 Sur 18 Sudeste 0 -- -- 96
2019-08-12 08:00:00 19.3 13 Sudeste 26 Sudeste 0 -- -- 98
2019-08-12 07:00:00 21.6 2 Este 14 Oeste 0 -- -- 67
2019-08-12 06:00:00 24.1 8 Oeste 16 Sudoeste 0 -- -- 40
2019-08-12 05:00:00 20.8 3 Noroeste 19 Norte 0 -- -- 65
2019-08-12 04:00:00 19.9 15 Norte 35 Sudeste 0 -- -- 99
2019-08-12 03:00:00 20.7 20 Sudeste 30 Sudeste 0 -- -- 99
2019-08-12 02:00:00 21.1 9 Noroeste 18 Sur 0 -- -- 99
2019-08-12 01:00:00 23.7 7 Sur 9 Sur 0 -- -- 64
2019-08-12 00:00:00 25.5 3 Sudoeste 10 Sur 0 -- -- 32
2019-08-11 23:00:00 26.4 4 Sudoeste 15 Oeste 0 -- -- 25
2019-08-11 22:00:00 26.6 4 Sudoeste 16 Oeste 0 -- -- 31
2019-08-11 21:00:00 25.4 6 Sur 12 Sudeste 0 -- -- 50
2019-08-11 20:00:00 26.3 8 Sudeste 15 Sur 0 -- -- 37
2019-08-11 19:00:00 27 12 Sudeste 19 Sur 0 -- -- 64
2019-08-11 18:00:00 27.7 8 Sur 21 Sudeste 0 -- -- 65
2019-08-11 17:00:00 27.9 12 Sur 26 Sur 0 -- -- 65
2019-08-11 16:00:00 27.7 12 Sur 27 Sur 0 -- -- 68
2019-08-11 15:00:00 27 14 Sur 23 Sur 0 -- -- 71
2019-08-11 14:00:00 27.8 7 Sur 20 Sur 0 -- -- 59
2019-08-11 13:00:00 26.6 8 Sur 19 Sur 0 -- -- 52
2019-08-11 12:00:00 25.9 17 Sur 30 Sudeste 0 -- -- 64
2019-08-11 11:00:00 27.8 16 Sur 25 Sudoeste 0 -- -- 27
2019-08-11 10:00:00 27.7 17 Sur 28 Sur 0 -- -- 24
2019-08-11 09:00:00 27 18 Sur 28 Sur 0 -- -- 20
2019-08-11 08:00:00 25.5 18 Sur 28 Sudeste 0 -- -- 19
2019-08-11 07:00:00 22.3 19 Sudeste 26 Sudeste 0 -- -- 39
2019-08-11 06:00:00 22.7 18 Sudeste 30 Sudeste 0 -- -- 36
2019-08-11 05:00:00 24 21 Sudeste 27 Sudeste 0 -- -- 27
2019-08-11 04:00:00 24.6 23 Sudeste 30 Sur 0 -- -- 22
2019-08-11 03:00:00 24.7 23 Sudeste 27 Sudeste 0 -- -- 15
2019-08-11 02:00:00 24.1 21 Sudeste 28 Sudeste 0 -- -- 57
2019-08-11 01:00:00 24.9 19 Sudeste 25 Sudeste 0 -- -- 55
2019-08-11 00:00:00 25 20 Sudeste 23 Sudeste 0 -- -- 71
2019-08-10 23:00:00 26.1 17 Sudeste 19 Sudeste 0 -- -- 57
2019-08-10 22:00:00 26.4 13 Sudeste 15 Sudeste 0 -- -- 52
2019-08-10 21:00:00 25.9 14 Sudeste 16 Sudeste 0 -- -- 64
2019-08-10 20:00:00 25.2 9 Sudeste 15 Sudeste 0 -- -- 80
2019-08-10 19:00:00 27.6 5 Sur 16 Sudoeste 0 -- -- 71
2019-08-10 18:00:00 29 6 Sudoeste 19 Sudoeste 0 -- -- 63
2019-08-10 17:00:00 29.9 3 Noroeste 27 Sudeste 0 -- -- 55
2019-08-10 16:00:00 29.5 4 Sur 26 Sur 0 -- -- 57
2019-08-10 15:00:00 29.2 14 Sudeste 24 Sur 0 -- -- 52
2019-08-10 14:00:00 29.3 12 Sur 29 Sur 0 -- -- 56
2019-08-10 13:00:00 29.8 9 Sur 22 Sur 0 -- -- 56
2019-08-10 12:00:00 29.9 8 Sur 19 Sur 0 -- -- 52
2019-08-10 11:00:00 30.8 8 Sur 17 Sudeste 0 -- -- 36
2019-08-10 10:00:00 30.3 7 Sudeste 14 Sudeste 0 -- -- 30
2019-08-10 09:00:00 28 11 Nordeste 34 Norte 0 -- -- 34
2019-08-10 08:00:00 26.8 24 Norte 34 Norte 0 -- -- 36
2019-08-10 07:00:00 25.9 26 Noroeste 38 Noroeste 0 -- -- 39
2019-08-10 06:00:00 25.3 29 Noroeste 41 Noroeste 0 -- -- 38
2019-08-10 05:00:00 26.9 23 Noroeste 44 Noroeste 0 -- -- 27
2019-08-10 04:00:00 27.8 21 Oeste 40 Oeste 0 -- -- 29
2019-08-10 03:00:00 28.3 17 Oeste 40 Oeste 0 -- -- 27
2019-08-10 02:00:00 28.6 16 Oeste 33 Noroeste 0 -- -- 26
2019-08-10 01:00:00 28.2 15 Oeste 30 Sudoeste 0 -- -- 26
2019-08-10 00:00:00 28 13 Oeste 36 Oeste 0 -- -- 27
2019-08-09 23:00:00 28 21 Oeste 32 Sudoeste 0 -- -- 24
2019-08-09 22:00:00 27.8 23 Oeste 37 Oeste 0 -- -- 23
2019-08-09 21:00:00 28.1 17 Oeste 29 Oeste 0 -- -- 18
2019-08-09 20:00:00 28.8 17 Oeste 28 Oeste 0 -- -- 21
2019-08-09 19:00:00 30.5 12 Oeste 26 Oeste 0 -- -- 26
2019-08-09 18:00:00 29.2 9 Oeste 26 Oeste 0 -- -- 37
2019-08-09 17:00:00 29.4 9 Sudoeste 20 Oeste 0 -- -- 34
2019-08-09 16:00:00 28.9 9 Sur 22 Sur 0 -- -- 48
2019-08-09 15:00:00 29.2 13 Sur 27 Sur 0 -- -- 35
2019-08-09 14:00:00 28.9 18 Sur 31 Sur 0 -- -- 27
2019-08-09 13:00:00 28.1 21 Sur 37 Sur 0 -- -- 38
2019-08-09 12:00:00 28 21 Sur 32 Sur 0 -- -- 37
2019-08-09 11:00:00 28.6 17 Sur 27 Sur 0 -- -- 27
2019-08-09 10:00:00 28 17 Sur 27 Sur 0 -- -- 23
2019-08-09 09:00:00 27.8 15 Sur 24 Sudoeste 0 -- -- 23
2019-08-09 08:00:00 25.9 18 Sur 24 Sudoeste 0 -- -- 27
2019-08-09 07:00:00 25 20 Sur 26 Sur 0 -- -- 28
2019-08-09 06:00:00 24.6 17 Sur 25 Sur 0 -- -- 29
2019-08-09 05:00:00 24.8 17 Sur 22 Sudoeste 0 -- -- 29
2019-08-09 04:00:00 24.7 16 Sudoeste 21 Sudoeste 0 -- -- 30
2019-08-09 03:00:00 25.6 15 Sudoeste 24 Oeste 0 -- -- 29
2019-08-09 02:00:00 25.6 16 Oeste 26 Oeste 0 -- -- 30
2019-08-09 01:00:00 26 15 Sudoeste 24 Sudoeste 0 -- -- 28
2019-08-09 00:00:00 26.3 13 Sudoeste 21 Sudoeste 0 -- -- 30
2019-08-08 23:00:00 26.3 14 Oeste 22 Oeste 0 -- -- 21
2019-08-08 22:00:00 25.4 11 Sudoeste 20 Sudoeste 0 -- -- 26
2019-08-08 21:00:00 25.6 13 Oeste 23 Oeste -- -- -- 44
2019-08-08 20:00:00 25.6 9 Sudoeste 22 Oeste 0 -- -- 50
2019-08-08 19:00:00 25.5 8 Sur 18 Sur 0 -- -- 68
2019-08-08 18:00:00 26.1 6 Sur 19 Sur 0 -- -- 65
2019-08-08 17:00:00 27.7 6 Sudoeste 17 Sur 0 -- -- 65
2019-08-08 16:00:00 27.5 6 Sur 19 Sudoeste 0 -- -- 66
2019-08-08 15:00:00 27.7 10 Sur 24 Sudoeste 0 -- -- 63
2019-08-08 14:00:00 26.9 8 Sur 21 Sudoeste 0 -- -- 69
2019-08-08 13:00:00 27.4 8 Sur 18 Sur 0 -- -- 65
2019-08-08 12:00:00 26 3 Este 12 Nordeste 0 -- -- 70
2019-08-08 11:00:00 26.6 5 Noroeste 15 Norte 0 -- -- 52
2019-08-08 10:00:00 27.4 5 Noroeste 17 Sudoeste 0 -- -- 38
2019-08-08 09:00:00 27.2 7 Sudoeste 23 Oeste 0 -- -- 29
2019-08-08 08:00:00 26.1 11 Sudoeste 25 Oeste 0 -- -- 25
2019-08-08 07:00:00 25.3 17 Oeste 24 Oeste 0 -- -- 25
2019-08-08 06:00:00 24.6 7 Oeste 12 Oeste 0 -- -- 30
2019-08-08 05:00:00 24.8 6 Noroeste 10 Noroeste 0 -- -- 32
2019-08-08 04:00:00 25.1 6 Noroeste 12 Oeste 0 -- -- 30
2019-08-08 03:00:00 24.3 9 Oeste 15 Oeste 0 -- -- 37
2019-08-08 02:00:00 24.5 4 Oeste 8 Noroeste 0 -- -- 30
2019-08-08 01:00:00 24.5 0 Calma 12 Norte 0 -- -- 41
2019-08-08 00:00:00 25.6 11 Norte 15 Norte 0 -- -- 27
2019-08-07 23:00:00 25.2 9 Norte 27 Noroeste 0 -- -- 29
2019-08-07 22:00:00 24.9 18 Norte 24 Norte 0 -- -- 35
2019-08-07 21:00:00 23.4 15 Noroeste 19 Noroeste 0 -- -- 74
2019-08-07 20:00:00 25.3 7 Noroeste 14 Noroeste 0 -- -- 71
2019-08-07 19:00:00 26 4 Nordeste 15 Este 0 -- -- 77
2019-08-07 18:00:00 26.3 5 Sur 15 Sur 0 -- -- 75
2019-08-07 17:00:00 26.9 8 Sur 20 Sur 0 -- -- 70
2019-08-07 16:00:00 27.8 4 Sudoeste 14 Oeste 0 -- -- 67
2019-08-07 15:00:00 27.8 5 Oeste 15 Sudoeste 0 -- -- 52
2019-08-07 14:00:00 27.7 5 Oeste 17 Sudoeste 0 -- -- 61
2019-08-07 13:00:00 26 2 Oeste 19 Norte 0 -- -- 68
2019-08-07 12:00:00 25 9 Noroeste 17 Norte 0 -- -- 75
2019-08-07 11:00:00 26.4 10 Noroeste 31 Oeste 0 -- -- 63
2019-08-07 10:00:00 24.6 18 Oeste 31 Oeste 0 -- -- 51
2019-08-07 09:00:00 25.7 10 Oeste 38 Oeste 0 -- -- 47
2019-08-07 08:00:00 25.9 23 Oeste 44 Oeste 0 -- -- 44
2019-08-07 07:00:00 25.2 27 Sudoeste 39 Sudoeste 0 -- -- 43
2019-08-07 06:00:00 24.1 23 Sur 32 Sudoeste 0 -- -- 36
2019-08-07 05:00:00 24.1 22 Sur 30 Sur 0 -- -- 31
2019-08-07 04:00:00 24.9 23 Sur 31 Sudoeste 0 -- -- 39
2019-08-07 03:00:00 25.4 19 Sur 23 Sudoeste 0 -- -- 36
2019-08-07 02:00:00 26.3 14 Sudoeste 21 Oeste 0 -- -- 27
2019-08-07 01:00:00 26.9 15 Oeste 22 Oeste 0 -- -- 31
2019-08-07 00:00:00 25.8 9 Oeste 19 Oeste 0 -- -- 37
2019-08-06 23:00:00 26.4 11 Oeste 24 Oeste 0 -- -- 39
2019-08-06 22:00:00 26.7 14 Oeste 28 Oeste 0 -- -- 35
2019-08-06 21:00:00 26.3 14 Sudoeste 27 Oeste 0 -- -- 34
2019-08-06 20:00:00 24.5 14 Sur 20 Sur 0 -- -- 78
2019-08-06 19:00:00 26.2 10 Sur 23 Sur 0 -- -- 71
2019-08-06 18:00:00 27.4 11 Sur 24 Sur 0 -- -- 64
2019-08-06 17:00:00 27.4 8 Sur 21 Sudoeste 0 -- -- 68
2019-08-06 16:00:00 28.5 0 Calma 18 Sur 0 -- -- 63
2019-08-06 15:00:00 27.9 5 Noroeste 19 Este 0 -- -- 67
2019-08-06 14:00:00 27.8 3 Noroeste 19 Sur 0 -- -- 62
2019-08-06 13:00:00 27.8 2 Sudoeste 17 Sudoeste 0 -- -- 54
2019-08-06 12:00:00 27.3 5 Sur 14 Sudeste 0 -- -- 56
2019-08-06 11:00:00 27.3 11 Sudeste 17 Sur 0 -- -- 53
2019-08-06 10:00:00 27.2 10 Sur 21 Sur 0 -- -- 43
2019-08-06 09:00:00 25.8 17 Sur 22 Sur 0 -- -- 42
2019-08-06 08:00:00 24.8 15 Sur 21 Sur 0 -- -- 47
2019-08-06 07:00:00 24.7 10 Sur 19 Sur 0 -- -- 46
2019-08-06 06:00:00 24.7 14 Sur 22 Sur 0 -- -- 46
2019-08-06 05:00:00 24.9 11 Sur 26 Sur 0 -- -- 45
2019-08-06 04:00:00 24.1 21 Sur 28 Sur 0 -- -- 40
2019-08-06 03:00:00 23.9 22 Sur 34 Sur 0 -- -- 41
2019-08-06 02:00:00 23.5 24 Sur 35 Sur 0 -- -- 34
2019-08-06 01:00:00 24.5 25 Sur 39 Sur 0 -- -- 24
2019-08-06 00:00:00 24.1 30 Sur 37 Sur 0 -- -- 21
2019-08-05 23:00:00 23.2 28 Sudeste 35 Sudeste 0 -- -- 28
2019-08-05 22:00:00 22.3 29 Sudeste 35 Sudeste 0 -- -- 65
2019-08-05 21:00:00 23 28 Sudeste 35 Sur 0 -- -- 59
2019-08-05 20:00:00 24 29 Sudeste 40 Sur 0 -- -- 60
2019-08-05 19:00:00 24.7 31 Sur 45 Sur 0 -- -- 64
2019-08-05 18:00:00 25.3 22 Sur 35 Sur 0 -- -- 63
2019-08-05 17:00:00 26.6 17 Sur 33 Sur 0 -- -- 58
2019-08-05 16:00:00 28.4 13 Sur -- -- -- -- -- 48
2019-08-05 15:00:00 28.5 14 Sur 30 Sudoeste 0 -- -- 47
2019-08-05 14:00:00 28.3 15 Sur 31 Sur 0 -- -- 41
2019-08-05 13:00:00 28.2 13 Sur 33 Sur 0 -- -- 42
2019-08-05 12:00:00 26.7 21 Sur 34 Sur 0 -- -- 37
2019-08-05 11:00:00 26.5 19 Sudeste 40 Sudeste 0 -- -- 34
2019-08-05 10:00:00 25.7 25 Sudeste 34 Sudeste 0 -- -- 32
2019-08-05 09:00:00 24.9 21 Sudeste 32 Sudeste 0 -- -- 34
2019-08-05 08:00:00 23.5 26 Sudeste 34 Sudeste 0 -- -- 36
2019-08-05 07:00:00 22.4 23 Sudeste 35 Sudeste 0 -- -- 36
2019-08-05 06:00:00 22.4 24 Sudeste 34 Sur 0 -- -- 36
2019-08-05 05:00:00 22.1 19 Sur 33 Sur 0 -- -- 40
2019-08-05 04:00:00 22.4 28 Sur 39 Sur 0 -- -- 38
2019-08-05 03:00:00 22.3 29 Sur 36 Sur 0 -- -- 40
2019-08-05 02:00:00 22.1 26 Sur 40 Sur 0 -- -- 44
2019-08-05 01:00:00 21.9 34 Sur 44 Sur 0 -- -- 47
2019-08-05 00:00:00 21.6 35 Sur 42 Sur 0 -- -- 51
2019-08-04 23:00:00 21.8 30 Sur 35 Sur 0 -- -- 49
2019-08-04 22:00:00 21.9 23 Sudeste 29 Sudeste 0 -- -- 59
2019-08-04 21:00:00 22.6 19 Sur 30 Sudeste 0 -- -- 56
2019-08-04 20:00:00 23.8 24 Sur 32 Sur 0 -- -- 50
2019-08-04 19:00:00 25.4 18 Sur 30 Sur 0 -- -- 43
2019-08-04 18:00:00 26.2 12 Sur 25 Sudeste 0 -- -- 40
2019-08-04 17:00:00 26.9 14 Sur 32 Sur 0 -- -- 39
2019-08-04 16:00:00 26.1 20 Sur 35 Sur 0 -- -- 39
2019-08-04 15:00:00 26.4 21 Sur 36 Sur 0 -- -- 39
2019-08-04 14:00:00 27.6 16 Sur 31 Sur 0 -- -- 36
2019-08-04 13:00:00 27.7 13 Sur 29 Sur 0 -- -- 35
2019-08-04 12:00:00 27.3 15 Sur 26 Sudeste 0 -- -- 35
2019-08-04 11:00:00 25.6 15 Sur 24 Sur 0 -- -- 38
2019-08-04 10:00:00 25.3 12 Sur 19 Sudeste 0 -- -- 36
2019-08-04 09:00:00 24.1 13 Sur 19 Sur 0 -- -- 39
2019-08-04 08:00:00 23 13 Sur 18 Sur 0 -- -- 41
2019-08-04 07:00:00 23.1 11 Sur 17 Sur 0 -- -- 39
2019-08-04 06:00:00 22.1 14 Sur 23 Sur 0 -- -- 43
2019-08-04 05:00:00 22.3 19 Sur 30 Sur 0 -- -- 42
2019-08-04 04:00:00 21 24 Sur 31 Sur 0 -- -- 47
2019-08-04 03:00:00 20.8 24 Sur 32 Sur 0 -- -- 51
2019-08-04 02:00:00 21.3 22 Sur 28 Sur 0 -- -- 50
2019-08-04 01:00:00 20.5 26 Sur 33 Sur 0 -- -- 57
2019-08-04 00:00:00 20.3 26 Sur 28 Sur 0 -- -- 71
2019-08-03 23:00:00 22.2 12 Sur 22 Sur 0 -- -- 55
2019-08-03 22:00:00 20.8 20 Sudeste 27 Sudeste 0 -- -- 65
2019-08-03 21:00:00 21.3 23 Sudeste 27 Sur 0 -- -- 65
2019-08-03 20:00:00 21.3 22 Sur 28 Sur 0 -- -- 61
2019-08-03 19:00:00 24.8 13 Sur 26 Sudeste 0 -- -- 52
2019-08-03 18:00:00 25.7 10 Sur 22 Sur 0 -- -- 50
2019-08-03 17:00:00 26.6 9 Sur 27 Sur 0 -- -- 49
2019-08-03 16:00:00 27.6 13 Sur 24 Sudoeste 0 -- -- 45
2019-08-03 15:00:00 27.7 13 Sur 27 Sudoeste 0 -- -- 43
2019-08-03 14:00:00 27.6 12 Sur 27 Sudoeste 0 -- -- 37
2019-08-03 13:00:00 26.4 8 Sur 23 Sudoeste 0 -- -- 41
2019-08-03 12:00:00 25.5 8 Sur 19 Sur 0 -- -- 40
2019-08-03 11:00:00 25.3 8 Sur 26 Sudeste 0 -- -- 40
2019-08-03 10:00:00 24 15 Sur 24 Sudeste 0 -- -- 44
2019-08-03 09:00:00 23.2 14 Sudeste 21 Sudeste 0 -- -- 43
2019-08-03 08:00:00 21.9 14 Sudeste 24 Sudeste 0 -- -- 43
2019-08-03 07:00:00 19.9 20 Sudeste 25 Sudeste 0 -- -- 52
2019-08-03 06:00:00 20 20 Sudeste 26 Sudeste 0 -- -- 46
2019-08-03 05:00:00 20.6 18 Este 28 Este 0 -- -- 44
2019-08-03 04:00:00 20.7 22 Este 32 Sudeste 0 -- -- 43
2019-08-03 03:00:00 20.8 22 Este 31 Este 0 -- -- 39
2019-08-03 02:00:00 20.7 24 Este 33 Sudeste 0 -- -- 44
2019-08-03 01:00:00 20.6 26 Sudeste 69 Sudeste 0 -- -- 45
2019-08-03 00:00:00 21.2 5 Este 13 Nordeste 0 -- -- 53
2019-08-02 23:00:00 22.4 6 Norte 17 Nordeste 0 -- -- 59
2019-08-02 22:00:00 22.7 13 Nordeste 17 Nordeste 0 -- -- 60
2019-08-02 21:00:00 21.9 8 Norte 19 Noroeste 0 -- -- 63
2019-08-02 20:00:00 23 10 Norte 17 Norte 0 -- -- 61
2019-08-02 19:00:00 25.4 2 Sudeste 17 Sudoeste 0 -- -- 53
2019-08-02 18:00:00 25.2 3 Sudeste 17 Sudeste 0 -- -- 53
2019-08-02 17:00:00 25.7 7 Sudeste 26 Sudeste 0 -- -- 51
2019-08-02 16:00:00 25.2 13 Sudeste 28 Sudeste 0 -- -- 53
2019-08-02 15:00:00 25 15 Sur 28 Sudeste 0 -- -- 53
2019-08-02 14:00:00 27.7 3 Sur 15 Sudeste 0 -- -- 44
2019-08-02 13:00:00 27 5 Sudoeste 16 Sur 0 -- -- 44
2019-08-02 12:00:00 25.4 8 Sur 18 Sudoeste 0 -- -- 52
2019-08-02 11:00:00 -- -- -- -- -- -- -- -- --
2019-08-02 10:00:00 25.1 12 Noroeste 24 Norte 0 -- -- 39
2019-08-02 09:00:00 24.7 16 Norte 29 Noroeste 0 -- -- 36
2019-08-02 08:00:00 23.2 18 Norte 32 Norte 0 -- -- 46
2019-08-02 07:00:00 21.5 25 Norte 33 Norte 0 -- -- 55
2019-08-02 06:00:00 20.4 20 Norte 23 Norte 0 -- -- 68
2019-08-02 05:00:00 20 14 Norte 19 Norte 0 -- -- 72
2019-08-02 04:00:00 21.6 13 Norte 18 Noroeste 0 -- -- 66
2019-08-02 03:00:00 21.3 12 Noroeste 17 Noroeste 0 -- -- 73
2019-08-02 02:00:00 20.7 15 Sur 27 Sur 0 -- -- 77
2019-08-02 01:00:00 23.2 18 Sur 24 Sur 0 -- -- 54
2019-08-02 00:00:00 27.4 16 Sudoeste 28 Oeste 0 -- -- 27
2019-08-01 23:00:00 27.7 20 Oeste 30 Oeste 0 -- -- 29
2019-08-01 22:00:00 24.6 14 Sur 26 Sudoeste 0 -- -- 43
2019-08-01 21:00:00 24.2 17 Sudoeste 31 Oeste 0 -- -- 48
2019-08-01 20:00:00 27.6 17 Sudoeste 32 Sur 0 -- -- 32
2019-08-01 19:00:00 26.5 17 Sudoeste 30 Sur 0 -- -- 39
2019-08-01 18:00:00 26.3 9 Sur 27 Sudeste 0 -- -- 44
2019-08-01 17:00:00 24.2 14 Sur 30 Sur 0 -- -- 57
2019-08-01 16:00:00 27.7 10 Sur 26 Sur 0 -- -- 42
2019-08-01 15:00:00 28.4 17 Sur 27 Sudoeste 0 -- -- 39
2019-08-01 14:00:00 27.1 14 Sur 24 Sudeste 0 -- -- 40
2019-08-01 13:00:00 27.3 8 Sur 22 Sudoeste 0 -- -- 41
2019-08-01 12:00:00 25.3 11 Sur 33 Sudeste 0 -- -- 42
2019-08-01 11:00:00 24.7 16 Sudeste 46 Sudeste 0 -- -- 40
2019-08-01 10:00:00 22.8 37 Sudeste 57 Sudeste 0 -- -- 40
2019-08-01 09:00:00 21.4 40 Sudeste 57 Sudeste 0 -- -- 39
2019-08-01 08:00:00 20.7 39 Sudeste 55 Sudeste 0 -- -- 38
2019-08-01 07:00:00 20.4 36 Sudeste 57 Sudeste 0 -- -- 38
2019-08-01 06:00:00 20.3 41 Sudeste 63 Sudeste 0 -- -- 38
2019-08-01 05:00:00 20 43 Sudeste 57 Sudeste 0 -- -- 39
2019-08-01 04:00:00 20.3 44 Sudeste 61 Sudeste 0 -- -- 40
2019-08-01 03:00:00 20 31 Sudeste 48 Sudeste 0 -- -- 43
2019-08-01 02:00:00 18.5 32 Sudeste 52 Sudeste 0 -- -- 47
2019-08-01 01:00:00 20 33 Sudeste 44 Sudeste 0 -- -- 41
2019-08-01 00:00:00 20.4 27 Este 65 Sudeste 0 -- -- 43
2019-07-31 23:00:00 19.4 42 Sudeste 58 Sudeste 0 -- -- 49
2019-07-31 22:00:00 20 24 Este 34 Este 0 -- -- 45
2019-07-31 21:00:00 20.8 6 Oeste 18 Nordeste 0 -- -- 48
2019-07-31 20:00:00 21.8 7 Nordeste 22 Sudeste 0 -- -- 43
2019-07-31 19:00:00 21.3 16 Sudeste 27 Sudeste 0 -- -- 48
2019-07-31 18:00:00 22.2 15 Sudeste 30 Sudeste 0 -- -- 46
2019-07-31 17:00:00 22.3 23 Sudeste 32 Sudeste 0 -- -- 45
2019-07-31 16:00:00 24.8 12 Este 25 Este 0 -- -- 39
2019-07-31 15:00:00 22.6 23 Sudeste 41 Sudeste 0 -- -- 44
2019-07-31 14:00:00 20.7 32 Sudeste 46 Sudeste 0 -- -- 48
2019-07-31 13:00:00 18.2 33 Sudeste 49 Sudeste 0 -- -- 59
2019-07-31 12:00:00 19.4 36 Sudeste 56 Sudeste 0 -- -- 54
2019-07-31 11:00:00 20 36 Sudeste 52 Sudeste 0 -- -- 53
2019-07-31 10:00:00 19.1 35 Sudeste 45 Este 0 -- -- 58
2019-07-31 09:00:00 19 19 Este 29 Sudeste 0 -- -- 58
2019-07-31 08:00:00 18.2 16 Este 26 Este 0 -- -- 58
2019-07-31 07:00:00 16.9 19 Este 28 Este 0 -- -- 64
2019-07-31 06:00:00 18.5 8 Nordeste 11 Nordeste 0 -- -- 64
2019-07-31 05:00:00 19 6 Nordeste 14 Este 0 -- -- 69
2019-07-31 04:00:00 17.7 14 Este 18 Este 0 -- -- 73
2019-07-31 03:00:00 19.3 9 Este 15 Este 0 -- -- 58
2019-07-31 02:00:00 19.5 12 Este 15 Este 0 -- -- 57
2019-07-31 01:00:00 19.8 7 Este 14 Nordeste 0 -- -- 55
2019-07-31 00:00:00 18.9 9 Nordeste 21 Este 0 -- -- 79
2019-07-30 23:00:00 18.6 14 Este 26 Sudeste 0 -- -- 88
2019-07-30 22:00:00 19.2 15 Sudeste 28 Sudeste 0 -- -- 88
2019-07-30 21:00:00 19.7 17 Sudeste 27 Sur 0 -- -- 85
2019-07-30 20:00:00 20.6 13 Sur 28 Sur 0 -- -- 79
2019-07-30 19:00:00 22.6 14 Sudeste 29 Sur 0 -- -- 67
2019-07-30 18:00:00 23.9 10 Sur 32 Sur 0 -- -- 55
2019-07-30 17:00:00 24.2 15 Sur 32 Sur 0 -- -- 49
2019-07-30 16:00:00 24 10 Sur 25 Sudoeste 0 -- -- 49
2019-07-30 15:00:00 25.1 13 Sur 28 Sudoeste 0 -- -- 46
2019-07-30 14:00:00 26 11 Sudoeste 32 Sur 0 -- -- 41
2019-07-30 13:00:00 27.1 11 Sur 26 Sur 0 -- -- 33
2019-07-30 12:00:00 25.5 11 Sur 22 Sudoeste 0 -- -- 35
2019-07-30 11:00:00 24 7 Sur 18 Sur 0 -- -- 37
2019-07-30 10:00:00 24.1 6 Sur 11 Sur 0 -- -- 27
2019-07-30 09:00:00 23.3 5 Sur 13 Sur 0 -- -- 29
2019-07-30 08:00:00 21.1 12 Sur 17 Sur 0 -- -- 35
2019-07-30 07:00:00 20.6 8 Sur 13 Sur 0 -- -- 30
2019-07-30 06:00:00 20.4 10 Sur 14 Sur 0 -- -- 34
2019-07-30 05:00:00 20.2 13 Sur 17 Sur 0 -- -- 35
2019-07-30 04:00:00 21.9 12 Sur 14 Sur 0 -- -- 28
2019-07-30 03:00:00 21.9 10 Sur 14 Sur 0 -- -- 27
2019-07-30 02:00:00 22.3 11 Sur 16 Sur 0 -- -- 25
2019-07-30 01:00:00 22.4 13 Sur 16 Sur 0 -- -- 27
2019-07-30 00:00:00 22.5 9 Sur 11 Sur 0 -- -- 31
2019-07-29 23:00:00 22.4 9 Sur 15 Sudoeste 0 -- -- 37
2019-07-29 22:00:00 22.2 12 Sudoeste 16 Sudoeste 0 -- -- 42
2019-07-29 21:00:00 21.8 9 Sur 13 Sudoeste 0 -- -- 49
2019-07-29 20:00:00 22.8 3 Norte 15 Sur 0 -- -- 53
2019-07-29 19:00:00 21.7 8 Sur 19 Sudoeste 0 -- -- 64
2019-07-29 18:00:00 23 10 Sudoeste 21 Sudoeste 0 -- -- 55
2019-07-29 17:00:00 23.3 6 Sur 20 Sudoeste 0 -- -- 53
2019-07-29 16:00:00 23.3 10 Sur 23 Sudoeste 0 -- -- 54
2019-07-29 15:00:00 24.5 9 Sudoeste 21 Sudoeste 0 -- -- 47
2019-07-29 14:00:00 24.5 7 Sudoeste 19 Sudoeste 0 -- -- 50
2019-07-29 13:00:00 22 11 Sur 20 Sudoeste 0 -- -- 62
2019-07-29 12:00:00 21.6 7 Sur 17 Sudoeste 0 -- -- 65
2019-07-29 11:00:00 21.3 8 Sur 27 Sudoeste 0 -- -- 56
2019-07-29 10:00:00 22.3 3 Oeste 18 Oeste 0 -- -- 31
2019-07-29 09:00:00 22.4 11 Oeste 24 Oeste 0 -- -- 27
2019-07-29 08:00:00 20.1 12 Oeste 36 Oeste 0 -- -- 30
2019-07-29 07:00:00 19 15 Oeste 26 Oeste 0 -- -- 29
2019-07-29 06:00:00 18.8 10 Oeste 14 Oeste 0 -- -- 29
2019-07-29 05:00:00 17.9 10 Noroeste 15 Noroeste 0 -- -- 33
2019-07-29 04:00:00 18 14 Noroeste 16 Noroeste 0 -- -- 38
2019-07-29 03:00:00 18 11 Noroeste 14 Noroeste 0 -- -- 28
2019-07-29 02:00:00 18 12 Noroeste 19 Noroeste 0 -- -- 33
2019-07-29 01:00:00 18.1 14 Noroeste 17 Noroeste 0 -- -- 39
2019-07-29 00:00:00 18.1 8 Noroeste 10 Noroeste 0 -- -- 40
2019-07-28 23:00:00 18.4 4 Oeste 11 Oeste 0 -- -- 40
2019-07-28 22:00:00 17.5 2 Oeste 6 Noroeste 0 -- -- 75
2019-07-28 21:00:00 18.1 5 Sudeste 18 Sudeste 0 -- -- 75
2019-07-28 20:00:00 20.5 7 Sudeste 13 Sudeste 0 -- -- 59
2019-07-28 19:00:00 21.8 0 Calma 14 Noroeste 0 -- -- 51
2019-07-28 18:00:00 20.6 8 Norte 19 Norte 0 -- -- 57
2019-07-28 17:00:00 19.7 7 Norte 18 Norte 0 -- -- 62
2019-07-28 16:00:00 19.4 10 Norte 21 Norte 0 -- -- 64
2019-07-28 15:00:00 19.2 14 Norte 28 Nordeste 0 -- -- 64
2019-07-28 14:00:00 18.3 16 Norte 28 Norte 0 -- -- 69
2019-07-28 13:00:00 18.8 16 Norte 29 Norte 0 -- -- 67
2019-07-28 12:00:00 18 13 Norte 23 Noroeste 0 -- -- 70
2019-07-28 11:00:00 17.1 10 Noroeste 22 Noroeste 0 -- -- 80
2019-07-28 10:00:00 16.2 12 Noroeste 43 Noroeste 0 -- -- 83
2019-07-28 09:00:00 15.5 34 Noroeste 45 Noroeste 0 -- -- 86
2019-07-28 08:00:00 15.2 27 Noroeste 53 Noroeste 0 -- -- 89
2019-07-28 07:00:00 14.8 38 Noroeste 49 Noroeste 0 -- -- 88
2019-07-28 06:00:00 15 32 Noroeste 54 Noroeste 0 -- -- 84
2019-07-28 05:00:00 15.6 35 Noroeste 56 Noroeste 0 -- -- 80
2019-07-28 04:00:00 16 41 Noroeste 58 Noroeste 0 -- -- 76
2019-07-28 03:00:00 16.5 40 Noroeste 63 Noroeste 0 -- -- 66
2019-07-28 02:00:00 17.3 39 Noroeste 62 Noroeste 0 -- -- 63
2019-07-28 01:00:00 18 30 Noroeste 45 Noroeste 0 -- -- 76
2019-07-28 00:00:00 18.5 26 Noroeste 40 Noroeste 0 -- -- 53
2019-07-27 23:00:00 19.2 21 Noroeste 34 Noroeste 0 -- -- 45
2019-07-26 12:00:00 26.3 18 Sur 31 Sudeste 0 -- -- 38
2019-07-26 11:00:00 26.3 17 Sur 35 Sudeste 0 -- -- 38
2019-07-26 10:00:00 24.1 22 Sur 39 Sur 0 -- -- 41
2019-07-26 09:00:00 23.4 21 Sudeste 29 Sudeste 0 -- -- 43
2019-07-26 08:00:00 22 26 Sudeste 30 Sudeste 0 -- -- 43
2019-07-26 07:00:00 21.1 21 Sudeste 25 Sur 0 -- -- 43
2019-07-26 06:00:00 21.2 21 Sudeste 25 Sudeste 0 -- -- 42
2019-07-26 05:00:00 21.3 23 Sudeste 25 Sudeste 0 -- -- 41
2019-07-26 04:00:00 22.2 19 Sudeste 23 Sudeste 0 -- -- 40
2019-07-26 03:00:00 21.9 20 Sudeste 28 Sur 0 -- -- 39
2019-07-26 02:00:00 22.4 24 Sudeste 28 Sudeste 0 -- -- 40
2019-07-26 01:00:00 22.3 23 Sudeste 30 Sudeste 0 -- -- 40
2019-07-26 00:00:00 22.1 24 Sudeste 34 Sur 0 -- -- 41
2019-07-25 23:00:00 21.6 30 Sudeste 34 Sur 0 -- -- 51
2019-07-25 22:00:00 21.8 29 Sur 33 Sur 0 -- -- 50
2019-07-25 21:00:00 22.6 24 Sur 30 Sur 0 -- -- 43
2019-07-25 20:00:00 24.1 16 Sur 23 Sur 0 -- -- 39
2019-07-25 19:00:00 26.2 13 Sur 22 Sudeste 0 -- -- 36
2019-07-25 18:00:00 27.3 13 Sur 23 Sudeste 0 -- -- 36
2019-07-25 17:00:00 27.5 10 Sur 24 Sudoeste 0 -- -- 36
2019-07-25 16:00:00 27.4 13 Sur 25 Sur 0 -- -- 41
2019-07-25 15:00:00 28.5 12 Sur 29 Sudoeste 0 -- -- 45
2019-07-25 14:00:00 29.8 10 Sur 28 Sudoeste 0 -- -- 39
2019-07-25 13:00:00 28.2 9 Sur 22 Sudoeste 0 -- -- 40
2019-07-25 12:00:00 26.7 10 Sur 21 Sudoeste 0 -- -- 43
2019-07-25 11:00:00 27 6 Sur 17 Sur 0 -- -- 45
2019-07-25 10:00:00 26.3 5 Sudeste 12 Sudeste 0 -- -- 42
2019-07-25 09:00:00 25.3 9 Sudeste 12 Sudeste 0 -- -- 43
2019-07-25 08:00:00 24.8 3 Sudeste 5 Sudeste 0 -- -- 42
2019-07-25 07:00:00 22.6 5 Noroeste 6 Noroeste 0 -- -- 49
2019-07-25 06:00:00 22.7 2 Noroeste 8 Sur 0 -- -- 46
2019-07-25 05:00:00 22.3 2 Sudeste 7 Nordeste 0 -- -- 49
2019-07-25 04:00:00 23.1 6 Este 13 Este 0 -- -- 46
2019-07-25 03:00:00 23.3 10 Sudeste 12 Sudeste 0 -- -- 47
2019-07-25 02:00:00 23.9 8 Nordeste 14 Nordeste 0 -- -- 46
2019-07-25 01:00:00 23.9 4 Nordeste 21 Este 0 -- -- 51
2019-07-25 00:00:00 23.9 16 Este 22 Este 0 -- -- 52
2019-07-24 23:00:00 24.9 5 Este 8 Este 0 -- -- 42
2019-07-24 22:00:00 23.8 3 Nordeste 13 Este 0 -- -- 50
2019-07-24 21:00:00 23.2 13 Sudeste 18 Sur 0 -- -- 50
2019-07-24 20:00:00 24.7 12 Sudeste 20 Sur 0 -- -- 44
2019-07-24 19:00:00 25.9 12 Sur 21 Sur 0 -- -- 41
2019-07-24 18:00:00 27 11 Sur 19 Sur 0 -- -- 38
2019-07-24 17:00:00 27.2 12 Sur 21 Sudoeste 0 -- -- 36
2019-07-24 16:00:00 28.2 13 Sur 22 Sudoeste 0 -- -- 32
2019-07-24 15:00:00 29.9 7 Sur 23 Sur 0 -- -- 31
2019-07-24 14:00:00 30.1 8 Sudeste 23 Sur 0 -- -- 30
2019-07-24 13:00:00 29 8 Sur 18 Sur 0 -- -- 31
2019-07-24 12:00:00 28.7 8 Sudeste 19 Sudeste 0 -- -- 31
2019-07-24 11:00:00 27 7 Sur 16 Sudeste 0 -- -- 36
2019-07-24 10:00:00 24.6 8 Nordeste 13 Nordeste 0 -- -- 38
2019-07-24 09:00:00 26 4 Nordeste 12 Este 0 -- -- 35
2019-07-24 08:00:00 25.3 8 Este 12 Este 0 -- -- 31
2019-07-24 07:00:00 24 5 Nordeste 13 Este 0 -- -- 33
2019-07-24 06:00:00 23.8 5 Nordeste 13 Este 0 -- -- 35
2019-07-24 05:00:00 24 7 Nordeste 11 Este 0 -- -- 37
2019-07-24 04:00:00 24.3 6 Nordeste 11 Nordeste 0 -- -- 39
2019-07-24 03:00:00 24.1 9 Nordeste 12 Nordeste 0 -- -- 40
2019-07-24 02:00:00 23.7 10 Norte 14 Nordeste 0 -- -- 41
2019-07-24 01:00:00 24.2 9 Norte 16 Este 0 -- -- 43
2019-07-24 00:00:00 25.9 12 Este 15 Este 0 -- -- 29
2019-07-23 23:00:00 25.6 8 Nordeste 13 Nordeste 0 -- -- 36
2019-07-23 22:00:00 25.7 12 Nordeste 14 Sudeste 0 -- -- 36
2019-07-23 21:00:00 23.5 14 Sudeste 21 Sudeste 0 -- -- 40
2019-07-23 20:00:00 25.4 14 Sur 21 Sur 0 -- -- 35
2019-07-23 19:00:00 26.8 12 Sur 18 Sudeste 0 -- -- 31
2019-07-23 18:00:00 28 6 Sur 16 Sudoeste 0 -- -- 29
2019-07-23 17:00:00 27.9 8 Sur 21 Sudoeste 0 -- -- 31
2019-07-23 16:00:00 29 9 Sur 21 Sur 0 -- -- 33
2019-07-23 15:00:00 29.6 5 Sudoeste 28 Sur 0 -- -- 32
2019-07-23 14:00:00 30.2 8 Sudeste 24 Sur 0 -- -- 25
2019-07-23 13:00:00 30.7 9 Sur 23 Sur 0 -- -- 25
2019-07-23 12:00:00 29.4 9 Sur 21 Sudeste 0 -- -- 29
2019-07-23 11:00:00 28.2 12 Sudeste 24 Sudeste 0 -- -- 28
2019-07-23 10:00:00 26.5 16 Sudeste 22 Sudeste 0 -- -- 28
2019-07-23 09:00:00 25.9 18 Sudeste 24 Sudeste 0 -- -- 26
2019-07-23 08:00:00 25.3 13 Sudeste 21 Sudeste 0 -- -- 26
2019-07-23 07:00:00 23.9 18 Sudeste 22 Sudeste 0 -- -- 31
2019-07-23 06:00:00 23.9 18 Este 22 Este 0 -- -- 27
2019-07-23 05:00:00 23.8 11 Este 20 Sudeste 0 -- -- 24
2019-07-23 04:00:00 24.4 15 Este 16 Este 0 -- -- 29
2019-07-23 03:00:00 25.1 12 Sudeste 17 Sudeste 0 -- -- 28
2019-07-23 02:00:00 25.6 14 Sudeste 18 Sudeste 0 -- -- 27
2019-07-23 01:00:00 25.8 12 Sudeste 19 Sudeste 0 -- -- 28
2019-07-23 00:00:00 26.3 14 Sudeste 18 Sudeste 0 -- -- 29
2019-07-22 23:00:00 26.1 13 Sudeste 16 Sudeste 0 -- -- 27
2019-07-22 22:00:00 23.8 17 Sudeste 21 Sudeste 0 -- -- 40
2019-07-22 21:00:00 24 16 Sudeste 20 Sudeste 0 -- -- 41
2019-07-22 20:00:00 25.2 12 Sur 19 Sur 0 -- -- 40
2019-07-22 19:00:00 26.7 9 Sur 19 Sur 0 -- -- 37
2019-07-22 18:00:00 27.4 11 Sur 22 Sudoeste 0 -- -- 36
2019-07-22 17:00:00 29 11 Sur 25 Sur 0 -- -- 34
2019-07-22 16:00:00 29.6 17 Sudeste 28 Sudeste 0 -- -- 30
2019-07-22 15:00:00 29.5 12 Sudeste 30 Sur 0 -- -- 34
2019-07-22 14:00:00 30.2 15 Sudeste 25 Sudeste 0 -- -- 31
2019-07-22 13:00:00 29.1 11 Sudeste 26 Sur 0 -- -- 31
2019-07-22 12:00:00 27.4 10 Sudeste 26 Sudeste 0 -- -- 31
2019-07-22 11:00:00 26.7 17 Sudeste 28 Sudeste 0 -- -- 34
2019-07-22 10:00:00 25.6 12 Sudeste 19 Sudeste 0 -- -- 36
2019-07-22 09:00:00 24.1 13 Sudeste 23 Sudeste 0 -- -- 37
2019-07-22 08:00:00 22.8 8 Nordeste 10 Nordeste 0 -- -- 41
2019-07-22 07:00:00 21.8 8 Nordeste 10 Nordeste 0 -- -- 41
2019-07-22 06:00:00 21.9 3 Este 12 Este 0 -- -- 38
2019-07-22 05:00:00 21.9 12 Este 19 Sudeste 0 -- -- 39
2019-07-22 04:00:00 22.5 14 Este 26 Sudeste 0 -- -- 37
2019-07-22 03:00:00 22.1 21 Sudeste 25 Sudeste 0 -- -- 40
2019-07-22 02:00:00 22.2 19 Sudeste 24 Sudeste 0 -- -- 40
2019-07-22 01:00:00 22.4 18 Sudeste 24 Sudeste 0 -- -- 36
2019-07-22 00:00:00 22.7 20 Sudeste 25 Sudeste 0 -- -- 36
2019-07-21 23:00:00 22.6 16 Sudeste 20 Sudeste 0 -- -- 37
2019-07-21 22:00:00 21.9 13 Sudeste 17 Sudeste 0 -- -- 45
2019-07-21 21:00:00 23 14 Sudeste 26 Sudeste 0 -- -- 41
2019-07-21 20:00:00 24.2 12 Sudeste 25 Sudeste 0 -- -- 38
2019-07-21 19:00:00 26.1 15 Sudeste 27 Sur 0 -- -- 36
2019-07-21 18:00:00 26.9 12 Sudeste 27 Sudeste 0 -- -- 32
2019-07-21 17:00:00 28.1 12 Sudeste 30 Sudeste 0 -- -- 30
2019-07-21 16:00:00 28.9 13 Sudeste 32 Sur 0 -- -- 30
2019-07-21 15:00:00 27 15 Sur 29 Sur 0 -- -- 34
2019-07-21 14:00:00 28.1 14 Sudeste 30 Sur 0 -- -- 35
2019-07-21 13:00:00 26.7 13 Sur 36 Sudeste 0 -- -- 39
2019-07-21 12:00:00 27.1 21 Sudeste 41 Sudeste 0 -- -- 32
2019-07-21 11:00:00 25.5 22 Este 44 Sudeste 0 -- -- 31
2019-07-21 10:00:00 23.5 28 Sudeste 44 Sudeste 0 -- -- 36
2019-07-21 09:00:00 22.7 38 Sudeste 46 Sudeste 0 -- -- 35
2019-07-21 08:00:00 23 28 Sudeste 36 Sudeste 0 -- -- 34
2019-07-21 07:00:00 23 24 Este 31 Este 0 -- -- 32
2019-07-21 06:00:00 22.7 18 Este 24 Este 0 -- -- 35
2019-07-21 05:00:00 22.3 15 Este 22 Sudeste 0 -- -- 39
2019-07-21 04:00:00 21.8 18 Sudeste 25 Sudeste 0 -- -- 37
2019-07-21 03:00:00 21.8 21 Sudeste 29 Sudeste 0 -- -- 38
2019-07-21 02:00:00 22.1 23 Sudeste 28 Sudeste 0 -- -- 35
2019-07-21 01:00:00 22.4 24 Sudeste 32 Sudeste 0 -- -- 34
2019-07-21 00:00:00 22.2 25 Sudeste 35 Sudeste 0 -- -- 36
2019-07-20 23:00:00 22.7 27 Sudeste 35 Sudeste 0 -- -- 36
2019-07-20 22:00:00 22.1 29 Sudeste 37 Sudeste 0 -- -- 43
2019-07-20 21:00:00 21.7 30 Sudeste 35 Sudeste 0 -- -- 49
2019-07-20 20:00:00 23.5 25 Sudeste 35 Sudeste 0 -- -- 45
2019-07-20 19:00:00 25.1 21 Sudeste 34 Sur 0 -- -- 41
2019-07-20 18:00:00 26.3 17 Sudeste 32 Sudeste 0 -- -- 40
2019-07-20 17:00:00 27.3 17 Sudeste 32 Sudeste 0 -- -- 39
2019-07-20 16:00:00 27.6 20 Sudeste 33 Sudeste 0 -- -- 38
2019-07-20 15:00:00 28.5 17 Sur 34 Sudeste 0 -- -- 36
2019-07-20 14:00:00 27.4 17 Sudeste 30 Sudeste 0 -- -- 39
2019-07-20 13:00:00 27.7 9 Sudeste 23 Sudeste 0 -- -- 40
2019-07-20 12:00:00 26.3 8 Sudeste 22 Sur 0 -- -- 41
2019-07-20 11:00:00 26 8 Sudeste 23 Sudeste 0 -- -- 39
2019-07-20 10:00:00 24 21 Sur 28 Sur 0 -- -- 40
2019-07-20 09:00:00 24.7 14 Sudeste 28 Sur 0 -- -- 38
2019-07-20 08:00:00 21.4 26 Sur 35 Sur 0 -- -- 43
2019-07-20 07:00:00 20.3 20 Sur 28 Sur 0 -- -- 46
2019-07-20 06:00:00 19.4 26 Sudeste 33 Sudeste 0 -- -- 49
2019-07-20 05:00:00 19 26 Sudeste 31 Sudeste 0 -- -- 50
2019-07-20 04:00:00 20 26 Sudeste 35 Sudeste 0 -- -- 47
2019-07-20 03:00:00 20 27 Sudeste 32 Sudeste 0 -- -- 49
2019-07-20 02:00:00 19.9 29 Sudeste 34 Sudeste 0 -- -- 48
2019-07-20 01:00:00 19.6 24 Sudeste 27 Sudeste 0 -- -- 58
2019-07-20 00:00:00 21.3 17 Sur 20 Sudeste 0 -- -- 48
2019-07-19 23:00:00 21.7 15 Sur 24 Sudeste 0 -- -- 49
2019-07-19 22:00:00 20.4 21 Sudeste 27 Sudeste 0 -- -- 54
2019-07-19 21:00:00 20.7 22 Sur 26 Sur 0 -- -- 50
2019-07-19 20:00:00 21.6 18 Sur 25 Sur 0 -- -- 48
2019-07-19 19:00:00 23.3 13 Sur 23 Sur 0 -- -- 46
2019-07-19 18:00:00 23.9 13 Sur 22 Sur 0 -- -- 45
2019-07-19 17:00:00 24.9 10 Sur 24 Sur 0 -- -- 44
2019-07-19 16:00:00 24.9 12 Sudoeste 23 Sudoeste 0 -- -- 43
2019-07-19 15:00:00 24.4 12 Sur 31 Sudoeste 0 -- -- 47
2019-07-19 14:00:00 23.4 9 Sudoeste 32 Sudoeste 0 -- -- 52
2019-07-19 13:00:00 24.2 12 Sur 26 Sudoeste 0 -- -- 45
2019-07-19 12:00:00 24.8 6 Sur 20 Sur 0 -- -- 40
2019-07-19 11:00:00 23.3 8 Sur 17 Sudeste 0 -- -- 45
2019-07-19 10:00:00 22.6 10 Sudeste 21 Sudeste 0 -- -- 46
2019-07-19 09:00:00 21.8 11 Sudeste 15 Sudeste 0 -- -- 48
2019-07-19 08:00:00 20.6 7 Sudeste 11 Sudeste 0 -- -- 54
2019-07-19 07:00:00 19.4 5 Sudeste 7 Sudeste 0 -- -- 57
2019-07-19 06:00:00 19.1 4 Sudeste 6 Noroeste 0 -- -- 54
2019-07-19 05:00:00 19.5 6 Norte 7 Norte 0 -- -- 53
2019-07-19 04:00:00 19.5 4 Oeste 7 Oeste 0 -- -- 56
2019-07-19 03:00:00 19.2 5 Sur 10 Sur 0 -- -- 58
2019-07-19 02:00:00 20 3 Sudoeste 8 Oeste 0 -- -- 55
2019-07-19 01:00:00 19.3 3 Sur 13 Sur 0 -- -- 56
2019-07-19 00:00:00 18.2 12 Sur 16 Sur 0 -- -- 54